This is the latest recevied weather packets stored in our database for station/object OK2ZI. If no packets are shown the sender has not sent any weather packets the latest 10 day(s).
| Time | Temp. | Humidity | Pressure | Rain* | Wind** | Luminosity | Snow |
|---|---|---|---|---|---|---|---|
| 1777693445 | 3.89° C | 84% | 1022 hPa | 0 mm | - | - | - |
| 1777693327 | 3.89° C | 84% | 1022 hPa | 0 mm | - | - | - |
| 1777692727 | 3.89° C | 83% | 1022 hPa | 0 mm | - | - | - |
| 1777692246 | 4.44° C | 81% | 1022 hPa | 0 mm | - | - | - |
| 1777691167 | 4.44° C | 81% | 1022 hPa | 0 mm | - | - | - |
| 1777691047 | 4.44° C | 82% | 1022 hPa | 0 mm | - | - | - |
| 1777689847 | 5° C | 79% | 1022 hPa | 0 mm | - | - | - |
| 1777689367 | 3.89° C | 83% | 1022 hPa | 0 mm | - | - | - |
| 1777688766 | 3.89° C | 83% | 1022 hPa | 0 mm | - | - | - |
| 1777688646 | 3.89° C | 83% | 1022 hPa | 0 mm | - | - | - |
| 1777686726 | 4.44° C | 82% | 1022 hPa | 0 mm | - | - | - |
| 1777686128 | 4.44° C | 82% | 1022 hPa | 0 mm | - | - | - |
| 1777685287 | 4.44° C | 83% | 1022 hPa | 0 mm | - | - | - |
| 1777684212 | 5.56° C | 79% | 1022 hPa | 0 mm | - | - | - |
| 1777683966 | 5.56° C | 78% | 1022 hPa | 0 mm | - | - | - |
| 1777682767 | 5.56° C | 79% | 1022 hPa | 0 mm | - | - | - |
| 1777682646 | 5.56° C | 79% | 1022 hPa | 0 mm | - | - | - |
| 1777682047 | 5.56° C | 79% | 1022 hPa | 0 mm | - | - | - |
| 1777681447 | 6.11° C | 76% | 1022 hPa | 0 mm | - | - | - |
| 1777680367 | 5.56° C | 80% | 1022 hPa | 0 mm | - | - | - |
| 1777680247 | 5.56° C | 79% | 1022 hPa | 0 mm | - | - | - |
| 1777679047 | 6.67° C | 73% | 1022 hPa | 0 mm | - | - | - |
| 1777678812 | 7.22° C | 73% | 1022 hPa | 0 mm | - | - | - |
| 1777677247 | 7.22° C | 72% | 1023 hPa | 0 mm | - | - | - |
| 1777677127 | 7.22° C | 72% | 1023 hPa | 0 mm | - | - | - |
* Rain latest hour (hover to see other rain measurements)
** Current wind speed in m/s (hover to see current wind gust speed)